Time;durP1;ratioP1;P1;durP2;ratioP2;P2;SDS_P1;SDS_P2;PMS_P1;PMS_P2;Temp;Humidity;BMP_temperature;BMP_pressure;BME280_temperature;BME280_humidity;BME280_pressure;Samples;Min_cycle;Max_cycle;Signal;HPM_P1;HPM_P2
2022/06/25 00:00:26;;;;;;;4.72;1.00;;;;;;;;;;6186789;28;20113;-76
2022/06/25 00:03:27;;;;;;;3.60;1.30;;;;;;;;;;6181974;28;21157;-76
2022/06/25 00:06:29;;;;;;;3.97;1.95;;;;;;;;;;6186567;28;20097;-77
2022/06/25 00:09:31;;;;;;;3.55;1.63;;;;;;;;;;6185471;28;20270;-76
2022/06/25 00:12:32;;;;;;;4.22;1.30;;;;;;;;;;6185292;28;20057;-77
2022/06/25 00:15:35;;;;;;;6.72;1.20;;;;;;;;;;6184211;28;20047;-76
2022/06/25 00:18:37;;;;;;;3.95;1.30;;;;;;;;;;6179826;28;20055;-76
2022/06/25 00:21:39;;;;;;;7.25;1.90;;;;;;;;;;6186530;28;20059;-76
2022/06/25 00:24:40;;;;;;;2.45;1.17;;;;;;;;;;6177893;28;20069;-76
2022/06/25 00:27:42;;;;;;;5.10;1.20;;;;;;;;;;6185828;28;20049;-76
2022/06/25 00:30:45;;;;;;;2.63;1.05;;;;;;;;;;6186067;28;20054;-76
2022/06/25 00:33:47;;;;;;;3.17;1.27;;;;;;;;;;6184853;28;20055;-76
2022/06/25 00:36:49;;;;;;;3.42;1.15;;;;;;;;;;6183029;28;20058;-76
2022/06/25 00:39:50;;;;;;;2.50;0.95;;;;;;;;;;6185733;28;20051;-76
2022/06/25 00:42:52;;;;;;;1.75;1.20;;;;;;;;;;6184573;28;20051;-76
2022/06/25 00:45:55;;;;;;;6.97;1.52;;;;;;;;;;6184440;28;20050;-76
2022/06/25 00:48:57;;;;;;;5.28;1.30;;;;;;;;;;6184810;28;20237;-76
2022/06/25 00:52:01;;;;;;;2.58;1.20;;;;;;;;;;6179754;28;20211;-76
2022/06/25 00:55:07;;;;;;;1.75;1.10;;;;;;;;;;6176036;28;20110;-76
2022/06/25 00:58:12;;;;;;;3.00;1.27;;;;;;;;;;6182040;28;20062;-76
2022/06/25 01:01:15;;;;;;;3.67;1.38;;;;;;;;;;6173212;28;20070;-77
2022/06/25 01:04:17;;;;;;;2.25;0.95;;;;;;;;;;6172665;28;20058;-76
2022/06/25 01:07:20;;;;;;;2.63;1.25;;;;;;;;;;6154486;28;20098;-76
2022/06/25 01:10:21;;;;;;;2.88;1.02;;;;;;;;;;6155032;28;20051;-76
2022/06/25 01:13:23;;;;;;;3.38;1.25;;;;;;;;;;6154331;28;20063;-76
2022/06/25 01:16:26;;;;;;;2.50;0.98;;;;;;;;;;6155931;28;20051;-76
2022/06/25 01:19:29;;;;;;;5.00;1.20;;;;;;;;;;6153358;28;20043;-76
2022/06/25 01:22:33;;;;;;;1.73;0.90;;;;;;;;;;6155747;28;20062;-77
2022/06/25 01:25:35;;;;;;;2.65;1.67;;;;;;;;;;6159547;28;20043;-76
2022/06/25 01:28:37;;;;;;;6.15;1.35;;;;;;;;;;6155199;28;20130;-77
2022/06/25 01:31:39;;;;;;;3.42;1.33;;;;;;;;;;6154928;28;20055;-76
2022/06/25 01:34:40;;;;;;;1.77;1.00;;;;;;;;;;6159356;28;20063;-76
2022/06/25 01:37:44;;;;;;;3.08;1.00;;;;;;;;;;6163151;28;20094;-76
2022/06/25 01:40:45;;;;;;;;;;;;;;;;;;6156383;28;20099;-74
2022/06/25 01:43:47;;;;;;;2.53;1.23;;;;;;;;;;6158207;28;19958;-76
2022/06/25 01:46:49;;;;;;;3.13;1.02;;;;;;;;;;6161160;28;20118;-76
2022/06/25 01:49:51;;;;;;;2.75;1.10;;;;;;;;;;6158357;28;20055;-76
2022/06/25 01:52:54;;;;;;;3.38;1.15;;;;;;;;;;6154003;28;20051;-76
2022/06/25 01:55:56;;;;;;;1.60;1.00;;;;;;;;;;6158901;28;20082;-76
2022/06/25 01:58:57;;;;;;;2.28;1.08;;;;;;;;;;6157126;28;20283;-76
2022/06/25 02:01:59;;;;;;;1.75;0.88;;;;;;;;;;6161839;28;20050;-76
2022/06/25 02:05:01;;;;;;;3.08;1.00;;;;;;;;;;6157700;28;20241;-76
2022/06/25 02:08:04;;;;;;;3.20;0.82;;;;;;;;;;6157578;28;20051;-76
2022/06/25 02:11:08;;;;;;;2.25;0.90;;;;;;;;;;6157669;28;20412;-76
2022/06/25 02:14:09;;;;;;;;;;;;;;;;;;6158570;28;20055;-74
2022/06/25 02:17:11;;;;;;;1.52;0.85;;;;;;;;;;6155559;28;20230;-76
2022/06/25 02:20:13;;;;;;;1.73;0.90;;;;;;;;;;6158547;28;20051;-76
2022/06/25 02:23:16;;;;;;;2.28;0.80;;;;;;;;;;6156480;28;20051;-74
2022/06/25 02:26:18;;;;;;;1.90;0.85;;;;;;;;;;6162193;28;20051;-74
2022/06/25 02:29:20;;;;;;;3.05;0.98;;;;;;;;;;6157720;28;20103;-76
2022/06/25 02:32:21;;;;;;;1.92;1.10;;;;;;;;;;6158351;28;20059;-76
2022/06/25 02:35:23;;;;;;;2.72;1.00;;;;;;;;;;6157896;28;20055;-75
2022/06/25 02:38:26;;;;;;;2.28;1.02;;;;;;;;;;6156910;28;20262;-76
2022/06/25 02:41:27;;;;;;;1.95;1.00;;;;;;;;;;6154488;28;20365;-76
2022/06/25 02:44:29;;;;;;;3.47;1.10;;;;;;;;;;6158080;28;20065;-74
2022/06/25 02:47:31;;;;;;;4.68;1.45;;;;;;;;;;6161444;28;20051;-76
2022/06/25 02:50:32;;;;;;;1.95;1.00;;;;;;;;;;6159343;28;20056;-74
2022/06/25 02:53:35;;;;;;;2.22;1.20;;;;;;;;;;6187813;28;20062;-74
2022/06/25 02:59:56;;;;;;;3.30;1.00;;;;;;;;;;6184466;28;20293;-76
2022/06/25 03:02:58;;;;;;;2.58;1.10;;;;;;;;;;6186104;28;20066;-76
2022/06/25 03:06:00;;;;;;;2.70;1.25;;;;;;;;;;6186044;28;20050;-74
2022/06/25 03:09:03;;;;;;;2.88;1.13;;;;;;;;;;6183766;28;20055;-74
2022/06/25 03:12:05;;;;;;;1.90;1.05;;;;;;;;;;6187710;28;20101;-74
2022/06/25 03:15:07;;;;;;;2.65;1.10;;;;;;;;;;6183830;28;20238;-74
2022/06/25 03:18:09;;;;;;;1.27;0.73;;;;;;;;;;6184211;28;20245;-74
2022/06/25 03:21:11;;;;;;;2.00;0.80;;;;;;;;;;6183665;28;20057;-74
2022/06/25 03:24:14;;;;;;;1.80;0.90;;;;;;;;;;6185760;28;20058;-75
2022/06/25 03:27:15;;;;;;;3.10;1.00;;;;;;;;;;6187397;28;20110;-74
2022/06/25 03:30:17;;;;;;;3.05;1.10;;;;;;;;;;6186921;28;20101;-74
2022/06/25 03:33:19;;;;;;;5.75;1.00;;;;;;;;;;6184459;28;20356;-74
2022/06/25 03:36:21;;;;;;;2.75;0.80;;;;;;;;;;6182717;28;20057;-74
2022/06/25 03:39:24;;;;;;;4.82;1.00;;;;;;;;;;6187211;28;20062;-74
2022/06/25 03:42:25;;;;;;;2.97;0.80;;;;;;;;;;6184080;28;20047;-74
2022/06/25 03:45:27;;;;;;;2.05;1.23;;;;;;;;;;6186823;28;20050;-75
2022/06/25 03:48:29;;;;;;;1.15;0.63;;;;;;;;;;6187839;28;20325;-77
2022/06/25 03:51:31;;;;;;;0.90;0.70;;;;;;;;;;6181193;28;20043;-74
2022/06/25 03:54:35;;;;;;;2.03;0.90;;;;;;;;;;6188420;28;20063;-74
2022/06/25 03:57:37;;;;;;;2.17;1.30;;;;;;;;;;6184944;28;20110;-74
2022/06/25 04:00:38;;;;;;;1.42;0.70;;;;;;;;;;6185493;28;20094;-75
2022/06/25 04:03:40;;;;;;;2.25;1.00;;;;;;;;;;6179449;28;20429;-73
2022/06/25 04:06:42;;;;;;;1.85;0.80;;;;;;;;;;6162899;28;20046;-74
2022/06/25 04:09:45;;;;;;;2.58;0.88;;;;;;;;;;6163118;28;20338;-74
2022/06/25 04:12:46;;;;;;;2.85;0.80;;;;;;;;;;6157266;28;20051;-74
2022/06/25 04:15:48;;;;;;;3.97;1.13;;;;;;;;;;6159127;28;20059;-74
2022/06/25 04:18:50;;;;;;;1.92;0.80;;;;;;;;;;6160178;28;20062;-74
2022/06/25 04:21:51;;;;;;;3.17;0.95;;;;;;;;;;6166262;28;20055;-74
2022/06/25 04:24:54;;;;;;;2.65;0.98;;;;;;;;;;6157098;28;20051;-74
2022/06/25 04:31:15;;;;;;;2.03;0.90;;;;;;;;;;6155060;28;20043;-73
2022/06/25 04:34:17;;;;;;;3.40;1.05;;;;;;;;;;6157559;28;20051;-74
2022/06/25 04:37:19;;;;;;;3.28;1.00;;;;;;;;;;6156214;28;20062;-74
2022/06/25 04:40:21;;;;;;;2.75;1.10;;;;;;;;;;6156312;28;20058;-74
2022/06/25 04:43:23;;;;;;;4.43;1.27;;;;;;;;;;6166197;28;20166;-74
2022/06/25 04:46:25;;;;;;;2.00;1.02;;;;;;;;;;6187673;28;20069;-74
2022/06/25 04:49:26;;;;;;;2.63;1.55;;;;;;;;;;6183168;28;20054;-74
2022/06/25 04:52:28;;;;;;;2.83;1.15;;;;;;;;;;6184346;28;20046;-74
2022/06/25 04:55:31;;;;;;;1.95;1.10;;;;;;;;;;6184081;28;20058;-74
2022/06/25 04:58:33;;;;;;;3.65;1.10;;;;;;;;;;6183873;28;20055;-74
2022/06/25 05:01:34;;;;;;;3.88;1.30;;;;;;;;;;6176530;28;20055;-76
2022/06/25 05:04:36;;;;;;;3.75;1.83;;;;;;;;;;6185277;28;20055;-74
2022/06/25 05:07:37;;;;;;;5.13;1.92;;;;;;;;;;6179532;28;20729;-74
2022/06/25 05:10:41;;;;;;;4.10;2.10;;;;;;;;;;6182757;28;20050;-76
2022/06/25 05:13:42;;;;;;;4.47;2.75;;;;;;;;;;6179701;28;20411;-74
2022/06/25 05:16:45;;;;;;;3.10;1.58;;;;;;;;;;6183147;28;20322;-75
2022/06/25 05:19:47;;;;;;;4.95;1.40;;;;;;;;;;6180060;28;20113;-74
2022/06/25 05:22:48;;;;;;;2.72;1.42;;;;;;;;;;6176331;28;20066;-74
2022/06/25 05:25:51;;;;;;;5.88;1.55;;;;;;;;;;6182653;28;20062;-74
2022/06/25 05:28:53;;;;;;;3.03;2.05;;;;;;;;;;6185760;28;20054;-74
2022/06/25 05:31:55;;;;;;;2.22;1.30;;;;;;;;;;6181780;28;20058;-76
2022/06/25 05:34:57;;;;;;;3.10;1.15;;;;;;;;;;6183834;28;20062;-74
2022/06/25 05:37:59;;;;;;;2.72;1.00;;;;;;;;;;6181535;28;20047;-76
2022/06/25 05:41:07;;;;;;;3.47;1.10;;;;;;;;;;6178175;28;20060;-74
2022/06/25 05:44:09;;;;;;;5.50;0.93;;;;;;;;;;6173361;28;20114;-74
2022/06/25 05:47:11;;;;;;;4.00;1.20;;;;;;;;;;6178954;28;20385;-75
2022/06/25 05:50:12;;;;;;;4.78;1.17;;;;;;;;;;6180938;28;20120;-74
2022/06/25 05:53:14;;;;;;;4.45;1.23;;;;;;;;;;6180841;28;20059;-75
2022/06/25 05:56:17;;;;;;;1.33;1.20;;;;;;;;;;6183287;28;20106;-74
2022/06/25 05:59:18;;;;;;;4.72;1.30;;;;;;;;;;6181863;28;20046;-74
2022/06/25 06:02:20;;;;;;;2.53;1.55;;;;;;;;;;6180468;28;20051;-74
2022/06/25 06:05:22;;;;;;;3.95;1.60;;;;;;;;;;6177955;28;20109;-74
2022/06/25 06:08:23;;;;;;;3.92;1.40;;;;;;;;;;6183763;28;20054;-76
2022/06/25 06:11:26;;;;;;;3.83;1.63;;;;;;;;;;6184254;28;20093;-74
2022/06/25 06:14:28;;;;;;;2.95;1.60;;;;;;;;;;6183805;28;20412;-74
2022/06/25 06:17:29;;;;;;;4.28;1.50;;;;;;;;;;6183254;28;20109;-74
2022/06/25 06:20:31;;;;;;;4.85;1.23;;;;;;;;;;6181676;28;20047;-74
2022/06/25 06:23:33;;;;;;;2.90;1.58;;;;;;;;;;6180335;28;20121;-74
2022/06/25 06:26:36;;;;;;;4.15;1.55;;;;;;;;;;6184916;28;20097;-74
2022/06/25 06:29:38;;;;;;;3.28;1.50;;;;;;;;;;6186321;28;20102;-74
2022/06/25 06:32:40;;;;;;;3.38;1.38;;;;;;;;;;6187814;28;20057;-74
2022/06/25 06:35:41;;;;;;;3.45;1.60;;;;;;;;;;6185098;28;20054;-75
2022/06/25 06:38:43;;;;;;;3.88;1.27;;;;;;;;;;6181578;28;20042;-74
2022/06/25 06:41:46;;;;;;;2.63;1.27;;;;;;;;;;6182932;28;20062;-74
2022/06/25 06:44:48;;;;;;;8.32;2.00;;;;;;;;;;6183620;28;20211;-74
2022/06/25 06:47:49;;;;;;;10.38;3.47;;;;;;;;;;6187792;28;20063;-75
2022/06/25 06:50:51;;;;;;;35.33;20.20;;;;;;;;;;6180528;28;20050;-75
2022/06/25 06:53:52;;;;;;;18.00;10.57;;;;;;;;;;6183014;28;20050;-74
2022/06/25 06:56:55;;;;;;;9.80;4.65;;;;;;;;;;6184443;28;20054;-74
2022/06/25 06:59:58;;;;;;;2.15;1.00;;;;;;;;;;6182885;28;20043;-75
2022/06/25 07:03:00;;;;;;;4.57;1.17;;;;;;;;;;6181453;28;21104;-74
2022/06/25 07:06:01;;;;;;;2.67;1.17;;;;;;;;;;6185076;28;20059;-74
2022/06/25 07:09:03;;;;;;;4.07;1.05;;;;;;;;;;6183393;28;20105;-76
2022/06/25 07:12:07;;;;;;;2.92;1.10;;;;;;;;;;6184016;28;20058;-77
2022/06/25 07:15:09;;;;;;;2.88;1.35;;;;;;;;;;6181933;28;20057;-74
2022/06/25 07:18:11;;;;;;;4.28;1.00;;;;;;;;;;6184691;28;20055;-74
2022/06/25 07:21:13;;;;;;;6.28;1.15;;;;;;;;;;6184034;28;20355;-74
2022/06/25 07:24:14;;;;;;;1.67;1.00;;;;;;;;;;6181876;28;20322;-74
2022/06/25 07:27:17;;;;;;;2.22;0.90;;;;;;;;;;6186384;28;20046;-74
2022/06/25 07:30:19;;;;;;;1.33;0.90;;;;;;;;;;6181112;28;20061;-74
2022/06/25 07:33:21;;;;;;;1.13;0.75;;;;;;;;;;6185191;28;20059;-74
2022/06/25 07:36:22;;;;;;;2.35;0.90;;;;;;;;;;6187356;28;20066;-74
2022/06/25 07:39:24;;;;;;;4.55;0.90;;;;;;;;;;6182013;28;20333;-73
2022/06/25 07:42:28;;;;;;;3.97;0.98;;;;;;;;;;6182300;28;20046;-76
2022/06/25 07:45:29;;;;;;;2.47;1.10;;;;;;;;;;6183638;28;20083;-75
2022/06/25 07:48:31;;;;;;;1.70;0.68;;;;;;;;;;6183409;28;20081;-76
2022/06/25 07:54:52;;;;;;;2.47;0.98;;;;;;;;;;6182779;28;20051;-76
2022/06/25 07:57:55;;;;;;;4.55;1.00;;;;;;;;;;6184011;28;20058;-76
2022/06/25 08:00:56;;;;;;;4.25;1.00;;;;;;;;;;6177790;28;20047;-76
2022/06/25 08:03:58;;;;;;;2.75;1.00;;;;;;;;;;6181522;28;20053;-76
2022/06/25 08:07:00;;;;;;;2.08;0.90;;;;;;;;;;6185071;28;20054;-76
2022/06/25 08:10:02;;;;;;;2.67;1.63;;;;;;;;;;6181736;28;20065;-75
2022/06/25 08:13:05;;;;;;;3.95;1.15;;;;;;;;;;6181520;28;20322;-73
2022/06/25 08:16:09;;;;;;;;;;;;;;;;;;6179949;28;20105;-74
2022/06/25 08:19:11;;;;;;;2.00;0.80;;;;;;;;;;6184307;28;19926;-73
2022/06/25 08:22:12;;;;;;;3.05;1.33;;;;;;;;;;6179850;28;20129;-73
2022/06/25 08:25:14;;;;;;;13.93;9.98;;;;;;;;;;6183617;28;20061;-75
2022/06/25 08:28:18;;;;;;;22.50;15.27;;;;;;;;;;6183713;28;20330;-74
2022/06/25 08:31:19;;;;;;;13.13;11.05;;;;;;;;;;6180493;28;20057;-75
2022/06/25 08:34:21;;;;;;;2.78;1.20;;;;;;;;;;6183488;28;20368;-73
2022/06/25 08:37:23;;;;;;;4.35;1.40;;;;;;;;;;6183267;28;20046;-74
2022/06/25 08:40:24;;;;;;;8.07;1.30;;;;;;;;;;6183224;28;20062;-74
2022/06/25 08:43:28;;;;;;;7.45;1.55;;;;;;;;;;6176104;28;20137;-74
2022/06/25 08:46:30;;;;;;;5.03;1.40;;;;;;;;;;6183957;28;20058;-74
2022/06/25 08:49:34;;;;;;;2.40;1.45;;;;;;;;;;6183257;28;20115;-74
2022/06/25 08:52:37;;;;;;;7.50;1.58;;;;;;;;;;6180663;28;20134;-74
2022/06/25 08:55:39;;;;;;;5.75;1.98;;;;;;;;;;6182172;28;20061;-74
2022/06/25 08:58:45;;;;;;;6.32;1.95;;;;;;;;;;6182543;28;20118;-74
2022/06/25 09:01:46;;;;;;;4.30;1.30;;;;;;;;;;6180117;28;20055;-74
2022/06/25 09:04:48;;;;;;;5.07;1.73;;;;;;;;;;6185780;28;20058;-74
2022/06/25 09:07:53;;;;;;;12.30;1.80;;;;;;;;;;6184468;28;20357;-75
2022/06/25 09:10:55;;;;;;;6.28;1.63;;;;;;;;;;6179526;28;20110;-75
2022/06/25 09:14:19;;;;;;;3.63;1.65;;;;;;;;;;6179892;28;20054;-75
2022/06/25 09:17:21;;;;;;;3.60;1.40;;;;;;;;;;6176609;28;20053;-75
2022/06/25 09:20:23;;;;;;;7.28;1.65;;;;;;;;;;6181074;28;20046;-75
2022/06/25 09:23:26;;;;;;;8.43;1.90;;;;;;;;;;6181164;28;20042;-75
2022/06/25 09:26:27;;;;;;;3.90;1.70;;;;;;;;;;6183175;28;20051;-75
2022/06/25 09:29:38;;;;;;;4.17;1.37;;;;;;;;;;6182039;28;20047;-75
2022/06/25 09:32:44;;;;;;;5.15;1.73;;;;;;;;;;6182873;28;20059;-74
2022/06/25 09:35:51;;;;;;;4.57;1.90;;;;;;;;;;6182335;28;20190;-73
2022/06/25 09:38:53;;;;;;;7.25;1.60;;;;;;;;;;6179179;28;20052;-74
2022/06/25 09:41:56;;;;;;;7.63;1.92;;;;;;;;;;6183390;28;20046;-74
2022/06/25 09:45:08;;;;;;;3.85;1.73;;;;;;;;;;6179876;28;20337;-74
2022/06/25 09:48:10;;;;;;;8.33;1.57;;;;;;;;;;6186695;28;20061;-73
2022/06/25 09:51:13;;;;;;;6.53;1.92;;;;;;;;;;6182692;28;20066;-76
2022/06/25 09:54:15;;;;;;;6.05;1.75;;;;;;;;;;6184398;28;20106;-76
2022/06/25 09:57:17;;;;;;;3.37;1.57;;;;;;;;;;6185238;28;20054;-76
2022/06/25 10:00:20;;;;;;;7.50;2.13;;;;;;;;;;6185653;28;20050;-76
2022/06/25 10:03:22;;;;;;;3.90;1.48;;;;;;;;;;6188442;28;20088;-76
2022/06/25 10:06:25;;;;;;;5.05;1.83;;;;;;;;;;6169276;28;20086;-76
2022/06/25 10:09:27;;;;;;;4.07;2.03;;;;;;;;;;6162286;28;20051;-76
2022/06/25 10:12:28;;;;;;;6.00;1.67;;;;;;;;;;6163340;28;20065;-76
2022/06/25 10:15:31;;;;;;;6.25;1.80;;;;;;;;;;6176917;28;20043;-77
2022/06/25 10:18:35;;;;;;;5.38;1.70;;;;;;;;;;6155232;28;20118;-76
2022/06/25 10:21:36;;;;;;;5.50;1.60;;;;;;;;;;6158353;28;20051;-76
2022/06/25 10:24:39;;;;;;;5.40;1.77;;;;;;;;;;6158181;28;20099;-77
2022/06/25 10:27:41;;;;;;;5.05;1.92;;;;;;;;;;6159942;28;20063;-77
2022/06/25 10:30:49;;;;;;;3.83;1.65;;;;;;;;;;6156509;28;20063;-77
2022/06/25 10:33:56;;;;;;;5.95;2.10;;;;;;;;;;6158396;28;20095;-77
2022/06/25 10:37:01;;;;;;;5.90;1.63;;;;;;;;;;6157545;28;20059;-77
2022/06/25 10:40:03;;;;;;;3.47;1.50;;;;;;;;;;6155210;28;20055;-78
2022/06/25 10:43:05;;;;;;;5.32;1.83;;;;;;;;;;6154511;28;20071;-78
2022/06/25 10:46:24;;;;;;;;;;;;;;;;;;6160549;28;20059;-78
2022/06/25 10:49:30;;;;;;;5.35;1.88;;;;;;;;;;6156226;28;19918;-77
2022/06/25 10:52:31;;;;;;;21.63;15.40;;;;;;;;;;6155465;28;21108;-80
2022/06/25 10:55:35;;;;;;;11.75;8.20;;;;;;;;;;6155368;28;20051;-81
2022/06/25 10:58:46;;;;;;;8.18;3.40;;;;;;;;;;6160596;28;20253;-80
2022/06/25 11:01:57;;;;;;;5.40;1.75;;;;;;;;;;6158089;28;20525;-77
2022/06/25 11:04:59;;;;;;;5.05;1.95;;;;;;;;;;6157695;28;20043;-77
2022/06/25 11:08:00;;;;;;;4.35;1.85;;;;;;;;;;6158857;28;20051;-78
2022/06/25 11:11:03;;;;;;;4.82;1.80;;;;;;;;;;6161473;28;20157;-78
2022/06/25 11:14:13;;;;;;;5.82;1.85;;;;;;;;;;6158588;28;20061;-79
2022/06/25 11:17:16;;;;;;;2.67;1.60;;;;;;;;;;6159663;28;20062;-78
2022/06/25 11:20:18;;;;;;;7.07;2.25;;;;;;;;;;6156036;28;20322;-78
2022/06/25 11:23:20;;;;;;;4.95;1.85;;;;;;;;;;6166807;28;20107;-79
2022/06/25 11:29:46;;;;;;;3.35;1.85;;;;;;;;;;6185220;28;20051;-79
2022/06/25 11:32:49;;;;;;;7.53;2.13;;;;;;;;;;6187698;28;20083;-79
2022/06/25 11:35:51;;;;;;;6.05;1.70;;;;;;;;;;6184733;28;20047;-82
2022/06/25 11:38:54;;;;;;;4.70;2.10;;;;;;;;;;6187019;28;20101;-79
2022/06/25 11:41:56;;;;;;;4.38;1.73;;;;;;;;;;6183918;28;20465;-79
2022/06/25 11:44:59;;;;;;;9.00;1.73;;;;;;;;;;6179213;28;20050;-78
2022/06/25 11:48:02;;;;;;;3.53;1.45;;;;;;;;;;6187450;28;20105;-79
2022/06/25 11:51:04;;;;;;;3.90;1.30;;;;;;;;;;6185214;28;20345;-79
2022/06/25 11:54:05;;;;;;;;;;;;;;;;;;6187772;28;20108;-79
2022/06/25 11:57:09;;;;;;;3.75;1.52;;;;;;;;;;6183536;28;20227;-78
2022/06/25 12:00:13;;;;;;;3.40;1.30;;;;;;;;;;6185999;28;20105;-77
2022/06/25 12:03:16;;;;;;;5.07;1.67;;;;;;;;;;6182213;28;20046;-79
2022/06/25 12:06:18;;;;;;;6.38;1.85;;;;;;;;;;6180302;28;20068;-79
2022/06/25 12:09:21;;;;;;;2.57;1.30;;;;;;;;;;6184422;28;20109;-79
2022/06/25 12:12:24;;;;;;;3.50;1.70;;;;;;;;;;6182732;28;20058;-79
2022/06/25 12:15:30;;;;;;;4.63;1.70;;;;;;;;;;6184870;28;20062;-76
2022/06/25 12:18:37;;;;;;;5.32;1.60;;;;;;;;;;6181936;28;20054;-76
2022/06/25 12:21:39;;;;;;;4.05;1.95;;;;;;;;;;6184769;28;20050;-76
2022/06/25 12:24:46;;;;;;;5.53;1.53;;;;;;;;;;6188052;28;20062;-76
2022/06/25 12:27:49;;;;;;;3.03;1.20;;;;;;;;;;6181406;28;21710;-76
2022/06/25 12:30:50;;;;;;;;;;;;;;;;;;6179701;28;20345;-76
2022/06/25 12:33:53;;;;;;;2.90;1.75;;;;;;;;;;6182323;28;19949;-76
2022/06/25 12:36:56;;;;;;;3.85;1.50;;;;;;;;;;6181849;28;20060;-76
2022/06/25 12:39:59;;;;;;;5.22;1.55;;;;;;;;;;6185973;28;20061;-75
2022/06/25 12:43:01;;;;;;;4.25;1.40;;;;;;;;;;6180665;28;20054;-76
2022/06/25 12:46:09;;;;;;;1.58;1.10;;;;;;;;;;6182779;28;20066;-76
2022/06/25 12:49:13;;;;;;;3.42;1.55;;;;;;;;;;6180018;28;20057;-76
2022/06/25 12:52:17;;;;;;;4.05;1.83;;;;;;;;;;6186549;28;20070;-76
2022/06/25 12:55:19;;;;;;;4.22;1.38;;;;;;;;;;6185819;28;20054;-76
2022/06/25 12:58:21;;;;;;;3.28;1.30;;;;;;;;;;6181426;28;20055;-76
2022/06/25 13:01:24;;;;;;;3.58;1.55;;;;;;;;;;6184427;28;20333;-76
2022/06/25 13:04:27;;;;;;;3.03;1.35;;;;;;;;;;6179316;28;20214;-76
2022/06/25 13:07:29;;;;;;;4.95;1.40;;;;;;;;;;6180169;28;20105;-76
2022/06/25 13:10:31;;;;;;;4.82;1.40;;;;;;;;;;6180575;28;20047;-76
2022/06/25 13:13:32;;;;;;;;;;;;;;;;;;6183146;28;20061;-76
2022/06/25 13:16:34;;;;;;;4.88;1.58;;;;;;;;;;6179182;28;19933;-76
2022/06/25 13:19:39;;;;;;;2.10;1.38;;;;;;;;;;6183740;28;20047;-76
2022/06/25 13:22:41;;;;;;;7.47;1.77;;;;;;;;;;6182398;28;20055;-76
2022/06/25 13:25:42;;;;;;;;;;;;;;;;;;6182350;28;20055;-76
2022/06/25 13:28:44;;;;;;;5.30;1.85;;;;;;;;;;6180764;28;20212;-76
2022/06/25 13:31:46;;;;;;;3.60;1.38;;;;;;;;;;6180163;28;20050;-75
2022/06/25 13:34:49;;;;;;;4.90;1.35;;;;;;;;;;6184357;28;20074;-76
2022/06/25 13:37:51;;;;;;;5.75;1.35;;;;;;;;;;6169181;28;20391;-76
2022/06/25 13:40:52;;;;;;;2.95;1.33;;;;;;;;;;6179294;28;20422;-76
2022/06/25 13:43:56;;;;;;;4.45;1.65;;;;;;;;;;6183847;28;20058;-75
2022/06/25 13:46:58;;;;;;;2.80;1.45;;;;;;;;;;6183030;28;20330;-76
2022/06/25 13:50:01;;;;;;;5.13;2.00;;;;;;;;;;6182731;28;20345;-76
2022/06/25 13:53:02;;;;;;;4.32;1.65;;;;;;;;;;6182429;28;20338;-76
2022/06/25 13:56:04;;;;;;;5.35;1.48;;;;;;;;;;6169636;28;20112;-76
2022/06/25 13:59:07;;;;;;;2.40;1.48;;;;;;;;;;6164103;28;20046;-75
2022/06/25 14:02:09;;;;;;;2.85;1.60;;;;;;;;;;6184036;28;20082;-76
2022/06/25 14:05:12;;;;;;;2.33;1.42;;;;;;;;;;6176696;28;20068;-76
2022/06/25 14:08:14;;;;;;;3.58;1.70;;;;;;;;;;6182924;28;20047;-75
2022/06/25 14:11:16;;;;;;;4.33;2.10;;;;;;;;;;6178641;28;20119;-75
2022/06/25 14:14:17;;;;;;;3.80;1.90;;;;;;;;;;6183421;28;20046;-76
2022/06/25 14:17:21;;;;;;;5.32;1.52;;;;;;;;;;6177638;28;20219;-76
2022/06/25 14:20:24;;;;;;;4.63;1.73;;;;;;;;;;6179931;28;20234;-76
2022/06/25 14:23:26;;;;;;;5.07;1.75;;;;;;;;;;6180803;28;20105;-76
2022/06/25 14:26:28;;;;;;;4.45;1.67;;;;;;;;;;6183093;28;20061;-76
2022/06/25 14:29:29;;;;;;;4.60;1.35;;;;;;;;;;6184003;28;20290;-76
2022/06/25 14:32:31;;;;;;;2.08;1.25;;;;;;;;;;6190378;28;20055;-76
2022/06/25 14:35:34;;;;;;;3.70;1.48;;;;;;;;;;6187309;28;20282;-76
2022/06/25 14:45:14;;;;;;;5.70;1.80;;;;;;;;;;6187047;28;20050;-76
2022/06/25 14:48:16;;;;;;;3.15;1.77;;;;;;;;;;6186719;28;20062;-76
2022/06/25 14:51:19;;;;;;;4.00;1.65;;;;;;;;;;6187974;28;20053;-76
2022/06/25 14:54:21;;;;;;;2.60;1.90;;;;;;;;;;6183186;28;20062;-77
2022/06/25 14:57:22;;;;;;;3.80;2.00;;;;;;;;;;6187366;28;20054;-76
2022/06/25 15:00:24;;;;;;;4.07;1.85;;;;;;;;;;6183230;28;20061;-78
2022/06/25 15:03:26;;;;;;;15.52;10.43;;;;;;;;;;6180614;28;20058;-80
2022/06/25 15:06:29;;;;;;;13.07;6.07;;;;;;;;;;6184195;28;20131;-82
2022/06/25 15:09:30;;;;;;;6.55;2.22;;;;;;;;;;6183062;28;20070;-81
2022/06/25 15:12:32;;;;;;;4.97;1.60;;;;;;;;;;6188893;28;20051;-79
2022/06/25 15:15:34;;;;;;;4.32;1.50;;;;;;;;;;6186926;28;20051;-80
2022/06/25 15:18:37;;;;;;;7.72;3.92;;;;;;;;;;6179809;28;20055;-80
2022/06/25 15:21:40;;;;;;;4.30;2.63;;;;;;;;;;6184317;28;20057;-82
2022/06/25 15:24:41;;;;;;;2.42;1.70;;;;;;;;;;6183140;28;20321;-80
2022/06/25 15:27:43;;;;;;;13.98;5.97;;;;;;;;;;6182591;28;20868;-79
2022/06/25 15:30:45;;;;;;;15.02;9.55;;;;;;;;;;6180687;28;20070;-80
2022/06/25 15:33:46;;;;;;;20.65;10.63;;;;;;;;;;6186053;28;20081;-82
2022/06/25 15:36:50;;;;;;;10.77;6.60;;;;;;;;;;6186751;28;20054;-81
2022/06/25 15:39:52;;;;;;;8.73;3.67;;;;;;;;;;6180988;28;20113;-79
2022/06/25 15:42:53;;;;;;;15.32;7.15;;;;;;;;;;6186617;28;20100;-79
2022/06/25 15:45:55;;;;;;;7.72;3.65;;;;;;;;;;6184462;28;20050;-75
2022/06/25 15:48:56;;;;;;;4.72;1.90;;;;;;;;;;6182742;28;20043;-73
2022/06/25 15:51:59;;;;;;;4.38;1.85;;;;;;;;;;6182383;28;20053;-74
2022/06/25 15:55:01;;;;;;;;;;;;;;;;;;6182290;28;20190;-72
2022/06/25 15:58:03;;;;;;;4.45;1.90;;;;;;;;;;6183639;28;19918;-72
2022/06/25 16:01:04;;;;;;;6.47;1.87;;;;;;;;;;6184038;28;20066;-72
2022/06/25 16:04:06;;;;;;;3.40;1.80;;;;;;;;;;6182851;28;20058;-72
2022/06/25 16:07:09;;;;;;;5.78;1.70;;;;;;;;;;6180910;28;20219;-72
2022/06/25 16:10:10;;;;;;;;;;;;;;;;;;6181663;28;20537;-72
2022/06/25 16:13:12;;;;;;;2.55;1.75;;;;;;;;;;6185095;28;19952;-72
2022/06/25 16:16:14;;;;;;;2.30;1.42;;;;;;;;;;6183628;28;20054;-72
2022/06/25 16:19:16;;;;;;;4.45;1.88;;;;;;;;;;6184974;28;20068;-72
2022/06/25 16:22:19;;;;;;;4.18;1.63;;;;;;;;;;6180158;28;20234;-72
2022/06/25 16:25:21;;;;;;;;;;;;;;;;;;6185420;28;20381;-72
2022/06/25 16:28:22;;;;;;;5.65;1.92;;;;;;;;;;6184337;28;19933;-72
2022/06/25 16:31:24;;;;;;;7.00;1.80;;;;;;;;;;6188992;28;20047;-72
2022/06/25 16:34:25;;;;;;;4.53;1.55;;;;;;;;;;6186225;28;20047;-72
2022/06/25 16:37:29;;;;;;;8.25;1.75;;;;;;;;;;6183179;28;20373;-72
2022/06/25 16:40:30;;;;;;;2.15;1.60;;;;;;;;;;6177184;28;20062;-72
2022/06/25 16:46:49;;;;;;;4.80;2.35;;;;;;;;;;6185887;28;20046;-72
2022/06/25 16:49:51;;;;;;;5.18;2.90;;;;;;;;;;6183188;28;20193;-74
2022/06/25 16:52:54;;;;;;;7.38;5.53;;;;;;;;;;6184194;28;20054;-73
2022/06/25 16:55:56;;;;;;;13.80;10.07;;;;;;;;;;6179473;28;20055;-74
2022/06/25 16:58:58;;;;;;;10.05;5.43;;;;;;;;;;6185940;28;20054;-74
2022/06/25 17:02:00;;;;;;;3.30;2.10;;;;;;;;;;6179125;28;20233;-74
2022/06/25 17:05:01;;;;;;;7.55;4.93;;;;;;;;;;6181729;28;20046;-74
2022/06/25 17:08:05;;;;;;;6.30;2.60;;;;;;;;;;6186165;28;20234;-72
2022/06/25 17:11:07;;;;;;;5.68;1.77;;;;;;;;;;6184064;28;20063;-72
2022/06/25 17:14:08;;;;;;;29.58;2.58;;;;;;;;;;6184574;28;20141;-73
2022/06/25 17:17:10;;;;;;;2.35;1.50;;;;;;;;;;6181665;28;20059;-74
2022/06/25 17:20:12;;;;;;;4.60;1.77;;;;;;;;;;6185567;28;20055;-72
2022/06/25 17:23:15;;;;;;;4.00;1.65;;;;;;;;;;6180743;28;20333;-72
2022/06/25 17:26:17;;;;;;;5.22;2.00;;;;;;;;;;6184392;28;20062;-72
2022/06/25 17:29:20;;;;;;;2.83;1.50;;;;;;;;;;6183012;28;20058;-73
2022/06/25 17:32:22;;;;;;;4.38;1.92;;;;;;;;;;6183446;28;20086;-72
2022/06/25 17:35:23;;;;;;;6.05;1.98;;;;;;;;;;6180192;28;20042;-72
2022/06/25 17:38:27;;;;;;;3.67;1.88;;;;;;;;;;6182452;28;20057;-71
2022/06/25 17:41:29;;;;;;;6.80;2.10;;;;;;;;;;6161746;28;20059;-73
2022/06/25 17:44:30;;;;;;;4.43;2.22;;;;;;;;;;6184953;28;20105;-73
2022/06/25 17:47:32;;;;;;;6.80;3.70;;;;;;;;;;6182861;28;20097;-73
2022/06/25 17:50:34;;;;;;;2.75;2.00;;;;;;;;;;6185699;28;20101;-73
2022/06/25 17:53:37;;;;;;;33.80;24.00;;;;;;;;;;6178708;28;20046;-73
2022/06/25 17:56:39;;;;;;;4.85;2.50;;;;;;;;;;6179805;28;20059;-72
2022/06/25 17:59:43;;;;;;;5.75;2.13;;;;;;;;;;6181090;28;20227;-73
2022/06/25 18:02:45;;;;;;;4.75;2.15;;;;;;;;;;6180686;28;20073;-73
2022/06/25 18:05:47;;;;;;;4.05;1.95;;;;;;;;;;6181614;28;20054;-72
2022/06/25 18:08:50;;;;;;;6.63;2.22;;;;;;;;;;6180445;28;20046;-72
2022/06/25 18:11:51;;;;;;;4.38;1.70;;;;;;;;;;6185304;28;20051;-73
2022/06/25 18:14:54;;;;;;;5.15;2.00;;;;;;;;;;6184173;28;20322;-73
2022/06/25 18:17:55;;;;;;;4.95;2.17;;;;;;;;;;6183716;28;20053;-72
2022/06/25 18:20:57;;;;;;;5.25;2.05;;;;;;;;;;6189161;28;20054;-73
2022/06/25 18:24:00;;;;;;;11.57;2.40;;;;;;;;;;6187444;28;20046;-72
2022/06/25 18:27:02;;;;;;;5.35;2.10;;;;;;;;;;6188976;28;20054;-71
2022/06/25 18:30:04;;;;;;;4.75;2.00;;;;;;;;;;6184068;28;20070;-72
2022/06/25 18:33:05;;;;;;;3.80;2.20;;;;;;;;;;6191012;28;20380;-72
2022/06/25 18:36:09;;;;;;;5.80;2.33;;;;;;;;;;6178161;28;20061;-73
2022/06/25 18:39:12;;;;;;;3.97;2.20;;;;;;;;;;6180921;28;20062;-75